createdAt,value
2023-03-10T00:00:12.574Z,44994.56
2023-03-10T00:02:44.893Z,44968.59
2023-03-10T00:05:11.392Z,44998.56
2023-03-10T00:07:37.978Z,44982.59
2023-03-10T00:10:04.651Z,44972.59
2023-03-10T00:12:31.005Z,44974.59
2023-03-10T00:14:57.397Z,44978.59
2023-03-10T00:17:23.845Z,45006.56
2023-03-10T00:19:50.223Z,44992.56
2023-03-10T00:22:16.587Z,44972.59
2023-03-10T00:24:43.080Z,45010.56
2023-03-10T00:27:09.470Z,44972.59
2023-03-10T00:29:35.899Z,44978.59
2023-03-10T00:32:02.251Z,44998.56
2023-03-10T00:34:28.677Z,44986.59
2023-03-10T00:36:55.358Z,44982.59
2023-03-10T00:39:22.367Z,44990.59
2023-03-10T00:41:49.877Z,44986.59
2023-03-10T00:44:16.368Z,44982.59
2023-03-10T00:46:42.859Z,44972.59
2023-03-10T00:49:15.239Z,44966.59
2023-03-10T00:51:41.669Z,44982.59
2023-03-10T00:54:09.250Z,44964.59
2023-03-10T00:56:35.762Z,44982.59
2023-03-10T00:59:02.308Z,44940.63
2023-03-10T01:01:32.764Z,45030.53
2023-03-10T01:04:03.254Z,45012.56
2023-03-10T01:06:31.678Z,45066.50
2023-03-10T01:08:58.384Z,45090.50
2023-03-10T01:11:27.216Z,45106.47
2023-03-10T01:13:56.885Z,45104.47
2023-03-10T01:16:24.267Z,45142.44
2023-03-10T01:18:50.841Z,45178.41
2023-03-10T01:21:20.714Z,45162.44
2023-03-10T01:23:47.600Z,45164.44
2023-03-10T01:26:18.499Z,45166.44
2023-03-10T01:28:46.664Z,45226.38
2023-03-10T01:31:13.431Z,45188.41
2023-03-10T01:33:42.785Z,45170.41
2023-03-10T01:36:21.900Z,45190.41
2023-03-10T01:38:49.229Z,45178.41
2023-03-10T01:41:16.846Z,45188.41
2023-03-10T01:43:45.781Z,45178.41
2023-03-10T01:46:39.624Z,45152.44
2023-03-10T01:49:41.456Z,45148.44
2023-03-10T01:52:21.890Z,45136.44
2023-03-10T01:55:09.284Z,45150.44
2023-03-10T01:57:56.511Z,45124.47
2023-03-10T02:00:25.126Z,45094.50
2023-03-10T02:03:07.640Z,45090.50
2023-03-10T02:05:38.464Z,45090.50
2023-03-10T02:08:05.856Z,45076.50
2023-03-10T02:10:33.483Z,45070.50
2023-03-10T02:12:59.994Z,45074.50
2023-03-10T02:15:26.428Z,45048.53
2023-03-10T02:17:53.350Z,45074.50
2023-03-10T02:20:47.882Z,45064.50
2023-03-10T02:23:28.341Z,45038.53
2023-03-10T02:26:09.175Z,45014.56
2023-03-10T02:28:35.680Z,45004.56
2023-03-10T02:31:03.535Z,45046.53
2023-03-10T02:33:32.869Z,45034.53
2023-03-10T02:36:05.345Z,45026.53
2023-03-10T02:38:31.869Z,45016.56
2023-03-10T02:40:58.388Z,44976.59
2023-03-10T02:43:33.710Z,44990.59
2023-03-10T02:50:36.824Z,44984.59
2023-03-10T02:53:16.547Z,44968.59
2023-03-10T02:55:43.334Z,44966.59
2023-03-10T02:58:10.600Z,44978.59
2023-03-10T03:00:39.797Z,44974.59
2023-03-10T03:03:08.409Z,45002.56
2023-03-10T03:05:35.317Z,44986.59
2023-03-10T03:08:02.922Z,45000.56
2023-03-10T03:10:30.108Z,44986.59
2023-03-10T03:12:57.466Z,44976.59
2023-03-10T03:15:25.904Z,44964.59
2023-03-10T03:17:54.180Z,44990.59
2023-03-10T03:20:22.125Z,45000.56
2023-03-10T03:22:50.676Z,44966.59
2023-03-10T03:25:18.888Z,44984.59
2023-03-10T03:27:46.364Z,44972.59
2023-03-10T03:30:24.844Z,44970.59
2023-03-10T03:32:52.546Z,44970.59
2023-03-10T03:35:24.321Z,44978.59
2023-03-10T03:37:52.355Z,44974.59
2023-03-10T03:40:20.583Z,44954.63
2023-03-10T03:42:49.809Z,44982.59
2023-03-10T03:45:19.605Z,44970.59
2023-03-10T03:47:46.765Z,45002.56
2023-03-10T03:50:16.059Z,44986.59
2023-03-10T03:52:44.173Z,44978.59
2023-03-10T03:55:14.505Z,44978.59
2023-03-10T03:57:41.017Z,44980.59
2023-03-10T04:00:12.479Z,44968.59
2023-03-10T04:02:44.656Z,44978.59
2023-03-10T04:05:12.621Z,44976.59
2023-03-10T04:07:41.423Z,44986.59
2023-03-10T04:10:12.566Z,44986.59
2023-03-10T04:12:39.447Z,44964.59
2023-03-10T04:15:08.203Z,44972.59
2023-03-10T04:17:35.759Z,44978.59
2023-03-10T04:20:07.354Z,44962.59
2023-03-10T04:22:36.931Z,44962.59
2023-03-10T04:25:05.904Z,44960.59
2023-03-10T04:27:34.762Z,44986.59
2023-03-10T04:30:02.306Z,44970.59
2023-03-10T04:32:29.674Z,44978.59
2023-03-10T04:34:56.320Z,44978.59
2023-03-10T04:37:23.003Z,44962.59
2023-03-10T04:39:50.156Z,44938.63
2023-03-10T04:42:16.936Z,44990.59
2023-03-10T04:44:43.445Z,45000.56
2023-03-10T04:47:10.029Z,44996.56
2023-03-10T04:49:38.291Z,45004.56
2023-03-10T04:52:07.944Z,45000.56
2023-03-10T04:54:34.721Z,45002.56
2023-03-10T04:57:01.263Z,45026.53
2023-03-10T04:59:28.451Z,44962.59
2023-03-10T05:01:55.503Z,45000.56
2023-03-10T05:04:22.782Z,44970.59
2023-03-10T05:06:51.392Z,45002.56
2023-03-10T05:09:30.889Z,44996.56
2023-03-10T05:11:57.335Z,44982.59
2023-03-10T05:14:24.872Z,45016.56
2023-03-10T05:16:51.325Z,44978.59
2023-03-10T05:19:18.057Z,44984.59
2023-03-10T05:21:44.670Z,44984.59
2023-03-10T05:24:11.255Z,45002.56
2023-03-10T05:26:38.360Z,44994.56
2023-03-10T05:29:05.208Z,45006.56
2023-03-10T05:31:43.853Z,45014.56
2023-03-10T05:34:16.248Z,44982.59
2023-03-10T05:36:43.307Z,45016.56
2023-03-10T05:39:10.882Z,44994.56
2023-03-10T05:41:42.225Z,45030.53
2023-03-10T05:44:10.064Z,45026.53
2023-03-10T05:46:38.513Z,45010.56
2023-03-10T05:49:04.980Z,45026.53
2023-03-10T05:51:32.072Z,45010.56
2023-03-10T05:54:00.966Z,45026.53
2023-03-10T05:56:29.144Z,44994.56
2023-03-10T05:58:59.194Z,45032.53
2023-03-10T06:01:31.034Z,45034.53
2023-03-10T06:03:57.595Z,45034.53
2023-03-10T06:06:24.080Z,45030.53
2023-03-10T06:08:50.542Z,45030.53
2023-03-10T06:11:16.978Z,45012.56
2023-03-10T06:13:43.418Z,45050.53
2023-03-10T06:16:11.562Z,45038.53
2023-03-10T06:18:38.140Z,45046.53
2023-03-10T06:21:06.872Z,45006.56
2023-03-10T06:23:33.877Z,45040.53
2023-03-10T06:26:06.788Z,45050.53
2023-03-10T06:28:36.696Z,45050.53
2023-03-10T06:31:06.792Z,45034.53
2023-03-10T06:33:33.908Z,45074.50
2023-03-10T06:36:00.737Z,45048.53
2023-03-10T06:38:27.540Z,45090.50
2023-03-10T06:40:54.437Z,45108.47
2023-03-10T06:43:20.958Z,45138.44
2023-03-10T06:45:47.430Z,45154.44
2023-03-10T06:48:14.850Z,45128.47
2023-03-10T06:50:50.379Z,45162.44
2023-03-10T06:53:19.544Z,45114.47
2023-03-10T06:55:57.207Z,45128.47
2023-03-10T06:58:23.579Z,45166.44
2023-03-10T07:00:50.048Z,45170.41
2023-03-10T07:03:16.495Z,45198.41
2023-03-10T07:05:42.877Z,45178.41
2023-03-10T07:08:09.346Z,45150.44
2023-03-10T07:10:37.011Z,45178.41
2023-03-10T07:13:03.450Z,45200.41
2023-03-10T07:15:29.890Z,45212.38
2023-03-10T07:17:56.354Z,45174.41
2023-03-10T07:20:24.084Z,45206.38
2023-03-10T07:22:51.151Z,45224.38
2023-03-10T07:25:17.956Z,45232.38
2023-03-10T07:27:44.560Z,45228.38
2023-03-10T07:30:11.788Z,45210.38
2023-03-10T07:32:38.233Z,45224.38
2023-03-10T07:35:05.151Z,45254.34
2023-03-10T07:37:31.582Z,45194.41
2023-03-10T07:39:57.958Z,45230.38
2023-03-10T07:42:24.573Z,45222.38
2023-03-10T07:44:52.270Z,45258.34
2023-03-10T07:47:18.986Z,45246.34
2023-03-10T07:49:46.720Z,45252.34
2023-03-10T07:52:14.963Z,45266.34
2023-03-10T07:54:41.518Z,45278.31
2023-03-10T07:57:08.061Z,45314.28
2023-03-10T07:59:34.504Z,45290.31
2023-03-10T08:02:01.003Z,45328.28
2023-03-10T08:04:27.513Z,45362.25
2023-03-10T08:06:54.104Z,45376.25
2023-03-10T08:09:20.585Z,45412.22
2023-03-10T08:11:47.012Z,45446.19
2023-03-10T08:14:13.758Z,45466.19
2023-03-10T08:16:40.613Z,45448.19
2023-03-10T08:19:07.629Z,45478.16
2023-03-10T08:21:34.089Z,45470.19
2023-03-10T08:24:00.528Z,45442.19
2023-03-10T08:26:26.946Z,45472.16
2023-03-10T08:28:53.517Z,45462.19
2023-03-10T08:31:21.342Z,45484.16
2023-03-10T08:33:48.595Z,45466.19
2023-03-10T08:36:18.600Z,45480.16
2023-03-10T08:38:46.234Z,45482.16
2023-03-10T08:41:14.643Z,45486.16
2023-03-10T08:43:42.093Z,45490.16
2023-03-10T08:46:09.933Z,45478.16
2023-03-10T08:48:37.264Z,45452.19
2023-03-10T08:51:04.657Z,45474.16
2023-03-10T08:53:33.653Z,45422.22
2023-03-10T08:56:00.174Z,45410.22
2023-03-10T08:58:26.640Z,45426.22
2023-03-10T09:00:53.116Z,45410.22
2023-03-10T09:03:20.264Z,45442.19
2023-03-10T09:05:46.794Z,45426.22
2023-03-10T09:08:13.316Z,45498.16
2023-03-10T09:10:42.103Z,45544.13
2023-03-10T09:13:14.020Z,45550.13
2023-03-10T09:15:41.304Z,45572.09
2023-03-10T09:18:12.962Z,45598.06
2023-03-10T09:20:40.443Z,45574.09
2023-03-10T09:23:08.148Z,45634.06
2023-03-10T09:25:35.034Z,45626.06
2023-03-10T09:28:01.445Z,45658.03
2023-03-10T09:30:28.157Z,45626.06
2023-03-10T09:32:55.709Z,45656.03
2023-03-10T09:35:22.398Z,45630.06
2023-03-10T09:37:48.776Z,45636.06
2023-03-10T09:40:18.886Z,45622.06
2023-03-10T09:42:47.865Z,45646.03
2023-03-10T09:45:43.452Z,45678.03
2023-03-10T09:48:32.834Z,45636.06
2023-03-10T09:51:05.747Z,45644.03
2023-03-10T09:53:53.388Z,45614.06
2023-03-10T09:56:33.164Z,45642.03
2023-03-10T09:59:12.766Z,45638.06
2023-03-10T10:01:44.173Z,45614.06
2023-03-10T10:04:21.338Z,45626.06
2023-03-10T10:06:49.814Z,45588.09
2023-03-10T10:09:29.728Z,45592.09
2023-03-10T10:11:56.697Z,45620.06
2023-03-10T10:14:29.907Z,45614.06
2023-03-10T10:17:18.951Z,45622.06
2023-03-10T10:19:48.075Z,45582.09
2023-03-10T10:22:23.588Z,45578.09
2023-03-10T10:25:02.412Z,45580.09
2023-03-10T10:27:31.327Z,45570.09
2023-03-10T10:29:58.498Z,45578.09
2023-03-10T10:32:25.518Z,45570.09
2023-03-10T10:34:51.992Z,45550.13
2023-03-10T10:37:26.854Z,45554.09
2023-03-10T10:39:54.950Z,45554.09
2023-03-10T10:42:29.499Z,45542.13
2023-03-10T10:45:02.331Z,45558.09
2023-03-10T10:47:32.194Z,45534.13
2023-03-10T10:50:14.545Z,45542.13
2023-03-10T10:52:42.188Z,45542.13
2023-03-10T10:55:26.216Z,45546.13
2023-03-10T10:58:01.810Z,45530.13
2023-03-10T11:00:38.727Z,45534.13
2023-03-10T11:03:26.968Z,45522.13
2023-03-10T11:05:56.348Z,45498.16
2023-03-10T11:08:37.565Z,45510.16
2023-03-10T11:11:37.346Z,45514.13
2023-03-10T11:14:31.505Z,45542.13
2023-03-10T11:17:07.591Z,45524.13
2023-03-10T11:20:00.695Z,45504.16
2023-03-10T11:22:39.696Z,45514.13
2023-03-10T11:25:25.520Z,45528.13
2023-03-10T11:28:28.614Z,45502.16
2023-03-10T11:31:05.880Z,45504.16
2023-03-10T11:34:04.455Z,45506.16
2023-03-10T11:36:56.650Z,45516.13
2023-03-10T11:39:39.665Z,45498.16
2023-03-10T11:42:17.803Z,45506.16
2023-03-10T11:45:01.268Z,45536.13
2023-03-10T11:47:37.052Z,45526.13
2023-03-10T11:50:13.132Z,45514.13
2023-03-10T11:52:39.652Z,45538.13
2023-03-10T11:55:12.042Z,45516.13
2023-03-10T11:57:45.750Z,45546.13
2023-03-10T12:00:26.084Z,45540.13
2023-03-10T12:03:01.583Z,45542.13
2023-03-10T12:05:36.083Z,45546.13
2023-03-10T12:08:05.002Z,45544.13
2023-03-10T12:10:38.224Z,45554.09
2023-03-10T12:13:05.299Z,45558.09
2023-03-10T12:15:38.585Z,45542.13
2023-03-10T12:18:06.314Z,45558.09
2023-03-10T12:20:34.238Z,45564.09
2023-03-10T12:23:23.865Z,45530.13
2023-03-10T12:25:50.391Z,45558.09
2023-03-10T12:28:16.811Z,45572.09
2023-03-10T12:30:52.226Z,45562.09
2023-03-10T12:33:42.762Z,45554.09
2023-03-10T12:36:25.207Z,45574.09
2023-03-10T12:39:27.595Z,45554.09
2023-03-10T12:41:55.571Z,45560.09
2023-03-10T12:44:51.293Z,45566.09
2023-03-10T12:47:36.387Z,45550.13
2023-03-10T12:50:35.774Z,45570.09
2023-03-10T12:53:13.876Z,45578.09
2023-03-10T12:55:41.823Z,45582.09
2023-03-10T12:58:27.549Z,45596.06
2023-03-10T13:00:58.875Z,45574.09
2023-03-10T13:03:35.369Z,45590.09
2023-03-10T13:06:31.818Z,45590.09
2023-03-10T13:09:10.700Z,45594.09
2023-03-10T13:11:42.866Z,45586.09
2023-03-10T13:14:20.671Z,45598.06
2023-03-10T13:17:00.445Z,45602.06
2023-03-10T13:19:32.583Z,45598.06
2023-03-10T13:21:59.061Z,45594.09
2023-03-10T13:24:32.898Z,45590.09
2023-03-10T13:27:19.469Z,45584.09
2023-03-10T13:30:05.657Z,45602.06
2023-03-10T13:32:33.227Z,45602.06
2023-03-10T13:35:12.686Z,45610.06
2023-03-10T13:37:39.087Z,45606.06
2023-03-10T13:40:10.738Z,45622.06
2023-03-10T13:42:44.321Z,45616.06
2023-03-10T13:45:22.749Z,45630.06
2023-03-10T13:47:51.072Z,45634.06
2023-03-10T13:50:17.896Z,45618.06
2023-03-10T13:52:57.175Z,45618.06
2023-03-10T13:55:24.061Z,45606.06
2023-03-10T13:57:51.800Z,45664.03
2023-03-10T14:00:21.757Z,45642.03
2023-03-10T14:02:50.780Z,45646.03
2023-03-10T14:05:39.327Z,45652.03
2023-03-10T14:08:06.632Z,45656.03
2023-03-10T14:10:33.396Z,45664.03
2023-03-10T14:12:59.781Z,45650.03
2023-03-10T14:15:28.997Z,45664.03
2023-03-10T14:18:07.380Z,45692.00
2023-03-10T14:20:36.783Z,45684.00
2023-03-10T14:23:18.427Z,45694.00
2023-03-10T14:25:56.337Z,45678.03
2023-03-10T14:28:28.219Z,45662.03
2023-03-10T14:30:55.049Z,45698.00
2023-03-10T14:33:21.547Z,45666.03
2023-03-10T14:35:48.629Z,45710.00
2023-03-10T14:38:15.677Z,45706.00
2023-03-10T14:40:51.492Z,45712.00
2023-03-10T14:43:26.734Z,45706.00
2023-03-10T14:45:56.469Z,45670.03
2023-03-10T14:48:25.997Z,45706.00
2023-03-10T14:50:54.670Z,45690.00
2023-03-10T14:53:25.942Z,45710.00
2023-03-10T14:56:00.104Z,45718.00
2023-03-10T14:58:33.076Z,45692.00
2023-03-10T15:01:00.480Z,45686.00
2023-03-10T15:03:27.640Z,45686.00
2023-03-10T15:05:54.160Z,45700.00
2023-03-10T15:08:20.593Z,45718.00
2023-03-10T15:10:50.895Z,45722.00
2023-03-10T15:13:19.638Z,45702.00
2023-03-10T15:15:48.294Z,45714.00
2023-03-10T15:18:18.823Z,45700.00
2023-03-10T15:20:45.468Z,45727.97
2023-03-10T15:23:17.148Z,45714.00
2023-03-10T15:25:46.006Z,45745.97
2023-03-10T15:28:13.363Z,45722.00
2023-03-10T15:30:40.699Z,45722.00
2023-03-10T15:33:07.143Z,45725.97
2023-03-10T15:35:33.693Z,45729.97
2023-03-10T15:38:00.327Z,45737.97
2023-03-10T15:40:29.726Z,45714.00
2023-03-10T15:42:57.311Z,45741.97
2023-03-10T15:45:25.398Z,45722.00
2023-03-10T15:47:51.893Z,45735.97
2023-03-10T15:50:19.899Z,45733.97
2023-03-10T15:52:52.592Z,45741.97
2023-03-10T15:55:19.384Z,45722.00
2023-03-10T15:57:50.016Z,45718.00
2023-03-10T16:00:18.975Z,45718.00
2023-03-10T16:02:46.106Z,45710.00
2023-03-10T16:05:12.774Z,45710.00
2023-03-10T16:07:39.199Z,45698.00
2023-03-10T16:10:06.007Z,45729.97
2023-03-10T16:12:32.508Z,45714.00
2023-03-10T16:14:58.988Z,45712.00
2023-03-10T16:17:28.282Z,45706.00
2023-03-10T16:19:55.431Z,45710.00
2023-03-10T16:22:22.018Z,45727.97
2023-03-10T16:24:48.490Z,45755.97
2023-03-10T16:27:15.984Z,45741.97
2023-03-10T16:29:42.826Z,45749.97
2023-03-10T16:32:09.957Z,45741.97
2023-03-10T16:34:36.433Z,45735.97
2023-03-10T16:37:02.925Z,45751.97
2023-03-10T16:39:32.647Z,45767.97
2023-03-10T16:41:59.603Z,45749.97
2023-03-10T16:44:26.327Z,45745.97
2023-03-10T16:46:52.788Z,45769.97
2023-03-10T16:49:19.422Z,45765.97
2023-03-10T16:51:47.175Z,45755.97
2023-03-10T16:54:19.045Z,45771.94
2023-03-10T16:56:47.988Z,45789.94
2023-03-10T16:59:19.999Z,45777.94
2023-03-10T17:01:48.115Z,45783.94
2023-03-10T17:04:14.617Z,45773.94
2023-03-10T17:06:41.518Z,45801.94
2023-03-10T17:09:09.618Z,45781.94
2023-03-10T17:11:38.826Z,45807.94
2023-03-10T17:14:07.877Z,45797.94
2023-03-10T17:16:36.933Z,45785.94
2023-03-10T17:19:15.885Z,45789.94
2023-03-10T17:21:45.940Z,45781.94
2023-03-10T17:24:13.978Z,45797.94
2023-03-10T17:26:41.029Z,45821.91
2023-03-10T17:29:08.350Z,45801.94
2023-03-10T17:31:35.080Z,45813.94
2023-03-10T17:34:04.733Z,45795.94
2023-03-10T17:36:31.511Z,45777.94
2023-03-10T17:39:00.399Z,45801.94
2023-03-10T17:41:28.634Z,45817.91
2023-03-10T17:43:55.921Z,45819.91
2023-03-10T17:46:27.961Z,45813.94
2023-03-10T17:48:55.726Z,45801.94
2023-03-10T17:51:25.007Z,45793.94
2023-03-10T17:53:52.593Z,45825.91
2023-03-10T17:56:19.642Z,45811.94
2023-03-10T17:58:46.349Z,45793.94
2023-03-10T18:01:14.443Z,45829.91
2023-03-10T18:03:41.392Z,45805.94
2023-03-10T18:06:19.942Z,45793.94
2023-03-10T18:08:46.751Z,45811.94
2023-03-10T18:11:13.363Z,45843.91
2023-03-10T18:13:40.359Z,45823.91
2023-03-10T18:16:08.353Z,45805.94
2023-03-10T18:18:34.820Z,45825.91
2023-03-10T18:21:01.231Z,45813.94
2023-03-10T18:23:27.855Z,45801.94
2023-03-10T18:25:54.419Z,45781.94
2023-03-10T18:28:22.983Z,45833.91
2023-03-10T18:30:51.780Z,45791.94
2023-03-10T18:33:18.651Z,45809.94
2023-03-10T18:35:46.701Z,45827.91
2023-03-10T18:38:14.381Z,45833.91
2023-03-10T18:40:41.549Z,45813.94
2023-03-10T18:43:08.629Z,45813.94
2023-03-10T18:45:35.337Z,45829.91
2023-03-10T18:48:01.923Z,45801.94
2023-03-10T18:50:28.416Z,45801.94
2023-03-10T18:52:54.823Z,45825.91
2023-03-10T18:55:21.223Z,45821.91
2023-03-10T18:57:47.684Z,45817.91
2023-03-10T19:00:15.324Z,45797.94
2023-03-10T19:02:42.999Z,45805.94
2023-03-10T19:05:14.241Z,45813.94
2023-03-10T19:07:41.003Z,45815.94
2023-03-10T19:10:08.802Z,45813.94
2023-03-10T19:12:35.207Z,45801.94
2023-03-10T19:15:07.566Z,45821.91
2023-03-10T19:17:35.124Z,45801.94
2023-03-10T19:20:01.930Z,45819.91
2023-03-10T19:22:28.562Z,45779.94
2023-03-10T19:24:55.233Z,45819.91
2023-03-10T19:27:21.631Z,45793.94
2023-03-10T19:29:52.539Z,45809.94
2023-03-10T19:32:20.133Z,45813.94
2023-03-10T19:34:46.730Z,45797.94
2023-03-10T19:37:13.163Z,45805.94
2023-03-10T19:39:39.558Z,45807.94
2023-03-10T19:42:06.422Z,45825.91
2023-03-10T19:44:33.075Z,45821.91
2023-03-10T19:47:00.062Z,45821.91
2023-03-10T19:49:26.526Z,45813.94
2023-03-10T19:51:53.002Z,45825.91
2023-03-10T19:54:19.380Z,45825.91
2023-03-10T19:56:46.069Z,45807.94
2023-03-10T19:59:12.514Z,45805.94
2023-03-10T20:01:40.382Z,45815.94
2023-03-10T20:04:07.128Z,45823.91
2023-03-10T20:06:33.542Z,45805.94
2023-03-10T20:09:00.018Z,45811.94
2023-03-10T20:11:26.428Z,45803.94
2023-03-10T20:13:54.110Z,45801.94
2023-03-10T20:16:23.683Z,45807.94
2023-03-10T20:18:50.195Z,45811.94
2023-03-10T20:21:16.829Z,45821.91
2023-03-10T20:23:47.359Z,45807.94
2023-03-10T20:26:15.571Z,45805.94
2023-03-10T20:28:42.422Z,45797.94
2023-03-10T20:31:09.174Z,45813.94
2023-03-10T20:33:36.395Z,45803.94
2023-03-10T20:36:02.843Z,45809.94
2023-03-10T20:38:29.246Z,45801.94
2023-03-10T20:40:55.635Z,45813.94
2023-03-10T20:43:22.034Z,45813.94
2023-03-10T20:45:50.955Z,45809.94
2023-03-10T20:48:17.407Z,45821.91
2023-03-10T20:50:43.777Z,45815.94
2023-03-10T20:53:10.566Z,45797.94
2023-03-10T20:55:37.575Z,45817.91
2023-03-10T20:58:04.381Z,45803.94
2023-03-10T21:00:30.977Z,45819.91
2023-03-10T21:02:58.149Z,45829.91
2023-03-10T21:05:26.706Z,45809.94
2023-03-10T21:07:54.017Z,45801.94
2023-03-10T21:10:21.284Z,45815.94
2023-03-10T21:12:49.282Z,45821.91
2023-03-10T21:15:16.960Z,45797.94
2023-03-10T21:17:43.909Z,45813.94
2023-03-10T21:20:11.194Z,45817.91
2023-03-10T21:22:39.770Z,45801.94
2023-03-10T21:25:08.880Z,45813.94
2023-03-10T21:27:36.140Z,45839.91
2023-03-10T21:30:05.785Z,45829.91
2023-03-10T21:32:32.900Z,45797.94
2023-03-10T21:34:59.343Z,45791.94
2023-03-10T21:37:25.762Z,45793.94
2023-03-10T21:39:53.811Z,45813.94
2023-03-10T21:42:20.241Z,45827.91
2023-03-10T21:44:47.896Z,45819.91
2023-03-10T21:47:14.319Z,45801.94
2023-03-10T21:49:40.802Z,45821.91
2023-03-10T21:52:08.894Z,45809.94
2023-03-10T21:54:35.295Z,45793.94
2023-03-10T21:57:01.750Z,45783.94
2023-03-10T21:59:28.137Z,45805.94
2023-03-10T22:01:54.561Z,45785.94
2023-03-10T22:04:21.451Z,45821.91
2023-03-10T22:06:47.820Z,45797.94
2023-03-10T22:09:14.340Z,45829.91
2023-03-10T22:11:41.783Z,45809.94
2023-03-10T22:14:08.721Z,45825.91
2023-03-10T22:16:35.094Z,45781.94
2023-03-10T22:19:01.687Z,45789.94
2023-03-10T22:21:28.086Z,45811.94
2023-03-10T22:23:54.529Z,45825.91
2023-03-10T22:26:20.934Z,45805.94
2023-03-10T22:28:47.394Z,45789.94
2023-03-10T22:31:13.806Z,45809.94
2023-03-10T22:33:40.451Z,45785.94
2023-03-10T22:36:11.115Z,45797.94
2023-03-10T22:38:37.818Z,45811.94
2023-03-10T22:41:09.799Z,45809.94
2023-03-10T22:43:36.184Z,45805.94
2023-03-10T22:46:16.974Z,45801.94
2023-03-10T22:48:44.067Z,45801.94
2023-03-10T22:51:14.510Z,45821.91
2023-03-10T22:53:41.170Z,45797.94
2023-03-10T22:56:07.821Z,45797.94
2023-03-10T22:58:34.244Z,45813.94
2023-03-10T23:01:00.640Z,45797.94
2023-03-10T23:03:27.214Z,45793.94
2023-03-10T23:05:53.670Z,45773.94
2023-03-10T23:08:20.160Z,45789.94
2023-03-10T23:10:46.554Z,45795.94
2023-03-10T23:13:15.586Z,45809.94
2023-03-10T23:15:44.079Z,45793.94
2023-03-10T23:18:11.205Z,45795.94
2023-03-10T23:20:40.764Z,45815.94
2023-03-10T23:23:08.415Z,45795.94
2023-03-10T23:25:40.177Z,45785.94
2023-03-10T23:28:09.060Z,45805.94
2023-03-10T23:30:37.530Z,45817.91
2023-03-10T23:33:04.600Z,45791.94
2023-03-10T23:35:32.792Z,45817.91
2023-03-10T23:38:01.431Z,45797.94
2023-03-10T23:40:30.127Z,45805.94
2023-03-10T23:42:58.977Z,45805.94
2023-03-10T23:45:27.686Z,45805.94
2023-03-10T23:47:55.506Z,45795.94
2023-03-10T23:50:29.578Z,45811.94
2023-03-10T23:52:56.670Z,45817.91
2023-03-10T23:55:26.540Z,45819.91
2023-03-10T23:57:53.233Z,45813.94
